Evans, Iowa
Current Conditions -  °F | °C
As of 1:35 PM on Saturday 25 Oct 2014 (Local Time) from KOOA Reporting Station
Clear Clear  
Wind Chill: 72°   Ceiling: Unl
Heat Index: 72°   Visibility: 10mi
Dew Point: 36°   Wind: 10mph
Humidity: 28%   Direction: 10°N
Pressure: 30.07"   Gusts: NA
Location:  41.3158°N, 92.6258°W
Report Text: KOOA 251835Z AUTO 01009KT 10SM CLR 22/02 A3007 RMK AO2 T02200024
Loading
Personal Weather Stations






























Interactive Weather Map
Tropical Storm Tracking
New forecast layout! Learn more

10-Day Weather Forecast

Advertisements
Track Severe Weather on mobile